Time;durP1;ratioP1;P1;durP2;ratioP2;P2;SDS_P1;SDS_P2;PMS_P1;PMS_P2;Temp;Humidity;BMP_temperature;BMP_pressure;BME280_temperature;BME280_humidity;BME280_pressure;Samples;Min_cycle;Max_cycle;Signal;HPM_P1;HPM_P2
2022/06/25 00:01:03;;;;;;;26.52;23.92;;;17.50;99.90;;;;;;4980032;28;20077;-87
2022/06/25 00:03:29;;;;;;;27.65;24.95;;;17.50;99.90;;;;;;4960438;28;20038;-87
2022/06/25 00:05:55;;;;;;;28.58;25.48;;;17.60;99.90;;;;;;4964395;28;20100;-87
2022/06/25 00:08:20;;;;;;;30.85;27.55;;;17.50;99.90;;;;;;4964488;28;20038;-87
2022/06/25 00:10:46;;;;;;;27.77;24.88;;;17.50;99.90;;;;;;4958832;28;20031;-87
2022/06/25 00:13:12;;;;;;;31.52;27.13;;;17.50;99.90;;;;;;4960545;28;20483;-87
2022/06/25 00:15:37;;;;;;;33.65;29.17;;;17.50;99.90;;;;;;4960654;28;20034;-88
2022/06/25 00:18:03;;;;;;;33.65;29.17;;;17.60;99.90;;;;;;4981550;28;20049;-88
2022/06/25 00:20:29;;;;;;;30.13;27.10;;;17.50;99.90;;;;;;4957191;28;20038;-88
2022/06/25 00:22:58;;;;;;;30.17;26.98;;;17.50;99.90;;;;;;4974072;28;20759;-88
2022/06/25 00:25:23;;;;;;;31.38;26.95;;;17.50;99.90;;;;;;4971197;28;20081;-88
2022/06/25 00:27:49;;;;;;;29.15;26.05;;;17.50;99.90;;;;;;4955393;28;20066;-87
2022/06/25 00:30:15;;;;;;;31.05;27.70;;;17.50;99.90;;;;;;4963138;28;20121;-87
2022/06/25 00:32:41;;;;;;;28.13;25.15;;;17.50;99.90;;;;;;4973633;28;20070;-87
2022/06/25 00:35:10;;;;;;;29.83;26.70;;;17.50;99.90;;;;;;4955283;28;20081;-87
2022/06/25 00:37:35;;;;;;;28.80;25.60;;;17.40;99.90;;;;;;4963764;28;20389;-87
2022/06/25 00:40:01;;;;;;;30.83;27.50;;;17.40;99.90;;;;;;4961765;28;20038;-87
2022/06/25 00:42:27;;;;;;;31.38;28.08;;;17.50;99.90;;;;;;4959095;28;20388;-87
2022/06/25 00:44:53;;;;;;;34.50;29.15;;;17.40;99.90;;;;;;4977064;28;20049;-87
2022/06/25 00:47:22;;;;;;;26.30;23.60;;;17.50;99.90;;;;;;4990390;28;20130;-87
2022/06/25 00:49:49;;;;;;;29.13;26.13;;;17.50;99.90;;;;;;4973476;28;20436;-87
2022/06/25 00:52:19;;;;;;;27.73;24.33;;;17.40;99.90;;;;;;4963630;28;20430;-87
2022/06/25 00:54:49;;;;;;;27.52;24.63;;;17.40;99.90;;;;;;4996469;28;20129;-87
2022/06/25 00:57:20;;;;;;;27.65;24.80;;;17.30;99.90;;;;;;4964450;28;20045;-87
2022/06/25 00:59:50;;;;;;;27.85;24.92;;;17.40;99.90;;;;;;4981807;28;20298;-86
2022/06/25 01:02:15;;;;;;;26.80;24.00;;;17.30;99.90;;;;;;4977453;28;20046;-87
2022/06/25 01:04:41;;;;;;;26.02;23.20;;;17.20;99.90;;;;;;4979717;28;20406;-86
2022/06/25 01:07:08;;;;;;;25.15;22.42;;;17.20;99.90;;;;;;4964361;28;20048;-86
2022/06/25 01:09:35;;;;;;;24.60;22.00;;;17.20;99.90;;;;;;4965545;28;20156;-86
2022/06/25 01:12:00;;;;;;;23.38;20.25;;;17.20;99.90;;;;;;4985580;28;20080;-86
2022/06/25 01:14:27;;;;;;;23.05;20.65;;;17.20;99.90;;;;;;4982103;28;20038;-86
2022/06/25 01:16:52;;;;;;;23.52;20.98;;;17.10;99.90;;;;;;4968997;28;20034;-86
2022/06/25 01:19:18;;;;;;;21.38;19.10;;;17.10;99.90;;;;;;4968158;28;20040;-86
2022/06/25 01:21:45;;;;;;;25.35;22.02;;;17.10;99.90;;;;;;4984743;28;20391;-87
2022/06/25 01:24:12;;;;;;;21.75;19.65;;;17.10;99.90;;;;;;4981729;28;20048;-86
2022/06/25 01:26:41;;;;;;;24.23;21.60;;;17.10;99.90;;;;;;4968255;28;21028;-86
2022/06/25 01:29:08;;;;;;;22.50;20.20;;;17.10;99.90;;;;;;4970064;28;20046;-86
2022/06/25 01:31:35;;;;;;;22.45;20.15;;;17.10;99.90;;;;;;4978885;28;20052;-86
2022/06/25 01:34:02;;;;;;;20.55;18.55;;;17.00;99.90;;;;;;4967569;28;20465;-86
2022/06/25 01:36:30;;;;;;;23.83;21.27;;;17.00;99.90;;;;;;4969235;28;20501;-86
2022/06/25 01:38:56;;;;;;;26.73;22.23;;;16.90;99.90;;;;;;4979315;28;20039;-86
2022/06/25 01:41:22;;;;;;;25.60;20.45;;;16.90;99.90;;;;;;4982574;28;20454;-86
2022/06/25 01:43:47;;;;;;;21.25;19.15;;;16.80;99.90;;;;;;4971006;28;20113;-86
2022/06/25 01:46:14;;;;;;;21.63;19.17;;;16.70;99.90;;;;;;4981848;28;20038;-86
2022/06/25 01:48:43;;;;;;;26.52;21.67;;;16.70;99.90;;;;;;4967856;28;20030;-86
2022/06/25 01:51:09;;;;;;;22.63;19.65;;;16.70;99.90;;;;;;4986491;28;20085;-86
2022/06/25 01:53:35;;;;;;;26.52;22.02;;;16.60;99.90;;;;;;4962391;28;20035;-86
2022/06/25 01:56:02;;;;;;;25.42;20.67;;;16.60;99.90;;;;;;4979587;28;20541;-86
2022/06/25 01:58:28;;;;;;;21.15;18.95;;;16.70;99.90;;;;;;4986764;28;20042;-86
2022/06/25 02:00:53;;;;;;;24.13;21.55;;;16.60;99.90;;;;;;4968498;28;20402;-86
2022/06/25 02:03:19;;;;;;;23.67;20.17;;;16.60;99.90;;;;;;4979146;28;20455;-86
2022/06/25 02:05:56;;;;;;;24.30;21.55;;;16.60;99.90;;;;;;5000311;28;20039;-86
2022/06/25 02:08:24;;;;;;;19.85;17.85;;;16.50;99.90;;;;;;4970277;28;20117;-86
2022/06/25 02:10:50;;;;;;;21.13;19.02;;;16.40;99.90;;;;;;4976105;28;20438;-86
2022/06/25 02:13:19;;;;;;;22.70;20.50;;;16.40;99.90;;;;;;4980883;28;20074;-87
2022/06/25 02:15:45;;;;;;;25.77;20.92;;;16.50;99.90;;;;;;4981803;28;20038;-86
2022/06/25 02:18:11;;;;;;;20.48;18.48;;;16.40;99.90;;;;;;4967006;28;20049;-86
2022/06/25 02:20:38;;;;;;;22.55;20.20;;;16.40;99.90;;;;;;4968863;28;20038;-86
2022/06/25 02:23:03;;;;;;;24.08;21.50;;;16.40;99.90;;;;;;4981922;28;20034;-86
2022/06/25 02:25:29;;;;;;;20.50;18.35;;;16.40;99.90;;;;;;4965776;28;20038;-86
2022/06/25 02:27:58;;;;;;;21.33;19.30;;;16.40;99.90;;;;;;4968981;28;20039;-86
2022/06/25 02:30:24;;;;;;;22.30;19.90;;;16.40;99.90;;;;;;4964498;28;20091;-86
2022/06/25 02:32:49;;;;;;;22.83;20.42;;;16.30;99.90;;;;;;4962142;28;20041;-86
2022/06/25 02:35:15;;;;;;;21.92;19.60;;;16.30;99.90;;;;;;4961339;28;20046;-86
2022/06/25 02:37:41;;;;;;;20.05;18.05;;;16.20;99.90;;;;;;4978592;28;20065;-85
2022/06/25 02:40:07;;;;;;;35.70;19.90;;;16.20;99.90;;;;;;4978989;28;20038;-86
2022/06/25 02:42:37;;;;;;;216.40;29.33;;;16.20;99.90;;;;;;4959032;28;20038;-85
2022/06/25 02:45:04;;;;;;;22.95;20.33;;;16.10;99.90;;;;;;4958114;28;20377;-86
2022/06/25 02:47:30;;;;;;;22.25;20.00;;;16.20;99.90;;;;;;4955868;28;20065;-86
2022/06/25 02:49:55;;;;;;;21.02;18.85;;;16.20;99.90;;;;;;4965183;28;20413;-86
2022/06/25 02:52:21;;;;;;;25.00;20.65;;;16.20;99.90;;;;;;4966109;28;20379;-86
2022/06/25 02:54:47;;;;;;;20.67;18.48;;;16.20;99.90;;;;;;4967190;28;20066;-86
2022/06/25 03:00:00;;;;;;;23.52;20.48;;;16.20;99.90;;;;;;4984128;28;20116;-84
2022/06/25 03:02:27;;;;;;;20.20;18.20;;;16.10;99.90;;;;;;4966331;28;20040;-84
2022/06/25 03:04:52;;;;;;;22.83;20.08;;;16.10;99.90;;;;;;4965668;28;20059;-85
2022/06/25 03:07:18;;;;;;;18.67;16.75;;;16.10;99.90;;;;;;4963313;28;20038;-84
2022/06/25 03:09:44;;;;;;;22.50;19.52;;;16.00;99.90;;;;;;4999566;28;20050;-86
2022/06/25 03:12:12;;;;;;;17.45;15.82;;;16.00;99.90;;;;;;4963713;28;20042;-86
2022/06/25 03:14:38;;;;;;;18.08;16.33;;;16.00;99.90;;;;;;4966144;28;20517;-85
2022/06/25 03:17:04;;;;;;;20.65;18.48;;;16.10;99.90;;;;;;4997966;28;20042;-86
2022/06/25 03:19:29;;;;;;;18.77;16.88;;;16.20;99.90;;;;;;4957889;28;20045;-84
2022/06/25 03:21:55;;;;;;;20.27;18.13;;;16.20;99.90;;;;;;4966256;28;20387;-84
2022/06/25 03:24:21;;;;;;;21.60;18.63;;;16.20;99.90;;;;;;4979091;28;20057;-84
2022/06/25 03:26:47;;;;;;;20.98;18.60;;;16.20;99.90;;;;;;4982006;28;20046;-85
2022/06/25 03:29:13;;;;;;;18.98;17.05;;;16.20;99.90;;;;;;4995244;28;20084;-84
2022/06/25 03:31:39;;;;;;;20.65;18.48;;;16.20;99.90;;;;;;4957653;28;20041;-84
2022/06/25 03:34:06;;;;;;;19.42;17.52;;;16.20;99.90;;;;;;4964879;28;20047;-85
2022/06/25 03:36:32;;;;;;;18.40;16.60;;;16.30;99.90;;;;;;4960786;28;20565;-84
2022/06/25 03:38:58;;;;;;;21.75;18.30;;;16.30;99.90;;;;;;4963197;28;20038;-84
2022/06/25 03:41:35;;;;;;;19.02;17.13;;;16.40;99.90;;;;;;4960195;28;20032;-84
2022/06/25 03:44:11;;;;;;;19.15;17.23;;;16.40;99.90;;;;;;4961901;28;20541;-84
2022/06/25 03:46:38;;;;;;;16.90;15.20;;;16.40;99.90;;;;;;4996336;28;20586;-85
2022/06/25 03:49:05;;;;;;;16.92;15.32;;;16.50;99.90;;;;;;4957398;28;20045;-84
2022/06/25 03:51:32;;;;;;;18.08;16.20;;;16.50;99.90;;;;;;4958741;28;20108;-84
2022/06/25 03:53:58;;;;;;;17.52;15.63;;;16.50;99.90;;;;;;4958340;28;20063;-84
2022/06/25 03:56:23;;;;;;;18.27;16.40;;;16.50;99.90;;;;;;4956836;28;20061;-84
2022/06/25 03:58:58;;;;;;;21.15;16.33;;;16.50;99.90;;;;;;4962187;28;20471;-84
2022/06/25 04:01:24;;;;;;;19.23;17.30;;;16.60;99.90;;;;;;4972791;28;20110;-84
2022/06/25 04:03:50;;;;;;;18.00;16.10;;;16.70;99.90;;;;;;4961277;28;20165;-84
2022/06/25 04:06:16;;;;;;;17.92;15.95;;;16.70;99.90;;;;;;4977645;28;20183;-84
2022/06/25 04:08:41;;;;;;;20.15;18.15;;;16.70;99.90;;;;;;4980940;28;20041;-84
2022/06/25 04:11:08;;;;;;;21.63;17.10;;;16.70;99.90;;;;;;4976688;28;20038;-84
2022/06/25 04:13:33;;;;;;;17.55;15.85;;;16.80;99.90;;;;;;4955226;28;20455;-84
2022/06/25 04:15:59;;;;;;;17.42;15.63;;;16.90;99.90;;;;;;4976504;28;20371;-84
2022/06/25 04:18:25;;;;;;;18.13;16.23;;;16.90;99.90;;;;;;4979096;28;20038;-84
2022/06/25 04:20:50;;;;;;;18.33;16.52;;;17.00;99.90;;;;;;4962237;28;20499;-84
2022/06/25 04:23:16;;;;;;;16.92;15.25;;;17.00;99.90;;;;;;4980229;28;20034;-84
2022/06/25 04:25:41;;;;;;;18.30;16.50;;;17.10;99.90;;;;;;4958470;28;20125;-84
2022/06/25 04:30:51;;;;;;;18.02;16.23;;;17.20;99.90;;;;;;4972647;28;20042;-84
2022/06/25 04:33:17;;;;;;;17.05;15.45;;;17.30;99.90;;;;;;4958935;28;20160;-84
2022/06/25 04:35:43;;;;;;;16.67;15.05;;;17.40;99.90;;;;;;4959247;28;20589;-83
2022/06/25 04:38:09;;;;;;;18.52;16.33;;;17.30;99.90;;;;;;4973539;28;20046;-83
2022/06/25 04:40:35;;;;;;;16.83;15.13;;;17.30;99.90;;;;;;4959392;28;20066;-84
2022/06/25 04:43:01;;;;;;;17.80;16.02;;;17.50;99.90;;;;;;4969446;28;20065;-83
2022/06/25 04:45:27;;;;;;;16.33;14.73;;;17.50;99.90;;;;;;4963379;28;20053;-83
2022/06/25 04:47:52;;;;;;;15.25;13.85;;;17.40;99.90;;;;;;4976970;28;20176;-83
2022/06/25 04:50:18;;;;;;;15.52;14.02;;;17.50;99.90;;;;;;4963753;28;20042;-83
2022/06/25 04:52:46;;;;;;;14.82;13.35;;;17.60;99.90;;;;;;4979440;28;20033;-83
2022/06/25 04:55:12;;;;;;;15.27;13.77;;;17.60;99.90;;;;;;4980568;28;20101;-84
2022/06/25 04:57:38;;;;;;;15.68;13.90;;;17.70;99.90;;;;;;4964011;28;20070;-83
2022/06/25 05:00:04;;;;;;;14.57;13.07;;;17.70;99.90;;;;;;4975438;28;20035;-83
2022/06/25 05:02:30;;;;;;;14.23;12.93;;;17.80;99.90;;;;;;4975361;28;20038;-83
2022/06/25 05:04:55;;;;;;;13.75;12.35;;;17.90;99.90;;;;;;4961077;28;20113;-83
2022/06/25 05:07:21;;;;;;;13.45;11.73;;;17.90;99.90;;;;;;4961124;28;20383;-83
2022/06/25 05:09:47;;;;;;;13.35;11.85;;;18.10;99.90;;;;;;4956751;28;20073;-83
2022/06/25 05:13:11;;;;;;;11.98;10.88;;;18.00;99.90;;;;;;4955151;28;20419;-84
2022/06/25 05:14:58;;;;;;;12.38;11.10;;;18.20;99.90;;;;;;4977223;28;20086;-83
2022/06/25 05:17:24;;;;;;;11.80;10.60;;;18.20;99.90;;;;;;4963609;28;20069;-83
2022/06/25 05:19:49;;;;;;;11.88;10.70;;;18.20;99.90;;;;;;4964988;28;20039;-83
2022/06/25 05:22:15;;;;;;;11.27;10.27;;;18.30;99.90;;;;;;4981294;28;20043;-83
2022/06/25 05:24:41;;;;;;;10.82;9.82;;;18.50;99.90;;;;;;4975674;28;20042;-84
2022/06/25 05:27:06;;;;;;;11.38;10.27;;;18.50;94.50;;;;;;4960900;28;20034;-83
2022/06/25 05:29:32;;;;;;;11.40;10.23;;;18.40;58.90;;;;;;4965260;28;20041;-83
2022/06/25 05:31:58;;;;;;;10.55;9.55;;;18.60;56.40;;;;;;4961316;28;20119;-83
2022/06/25 05:34:24;;;;;;;10.93;9.82;;;18.60;34.90;;;;;;4960191;28;20049;-84
2022/06/25 05:36:49;;;;;;;11.82;8.70;;;18.60;20.10;;;;;;4959812;28;20543;-83
2022/06/25 05:39:15;;;;;;;10.75;9.57;;;18.70;10.80;;;;;;4962268;28;20036;-84
2022/06/25 05:41:40;;;;;;;10.35;9.32;;;18.80;2.40;;;;;;4961202;28;20564;-83
2022/06/25 05:44:06;;;;;;;10.38;9.27;;;18.90;1.00;;;;;;4980878;28;20065;-83
2022/06/25 05:46:32;;;;;;;10.43;9.23;;;18.90;1.00;;;;;;4961198;28;20046;-84
2022/06/25 05:48:57;;;;;;;10.25;9.15;;;19.00;1.00;;;;;;4960948;28;20213;-84
2022/06/25 05:51:25;;;;;;;11.27;9.02;;;19.00;1.00;;;;;;4959443;28;20034;-84
2022/06/25 05:53:51;;;;;;;9.35;8.20;;;19.00;1.00;;;;;;4963147;28;20051;-84
2022/06/25 05:56:16;;;;;;;9.63;8.35;;;19.10;1.00;;;;;;4963614;28;20469;-84
2022/06/25 05:58:42;;;;;;;9.25;7.97;;;19.20;1.00;;;;;;4991417;28;20505;-83
2022/06/25 06:01:08;;;;;;;9.73;8.70;;;19.20;1.00;;;;;;4960898;28;20065;-83
2022/06/25 06:03:33;;;;;;;9.02;7.88;;;19.30;1.00;;;;;;4991976;28;20043;-84
2022/06/25 06:05:59;;;;;;;10.00;8.77;;;19.30;1.00;;;;;;4962471;28;20042;-83
2022/06/25 06:08:24;;;;;;;10.88;8.45;;;19.30;1.00;;;;;;4993069;28;20152;-83
2022/06/25 06:10:50;;;;;;;8.98;8.07;;;19.40;1.00;;;;;;4959318;28;20053;-83
2022/06/25 06:13:18;;;;;;;10.70;8.63;;;19.40;1.00;;;;;;4976104;28;20038;-83
2022/06/25 06:15:56;;;;;;;9.13;8.30;;;19.50;1.00;;;;;;4966907;28;20088;-83
2022/06/25 06:18:22;;;;;;;10.23;8.57;;;19.60;1.00;;;;;;4983620;28;20053;-83
2022/06/25 06:20:47;;;;;;;9.05;8.15;;;19.60;1.00;;;;;;4954639;28;20283;-83
2022/06/25 06:23:14;;;;;;;10.13;8.25;;;19.70;1.00;;;;;;4978813;28;20049;-83
2022/06/25 06:25:40;;;;;;;10.30;8.50;;;19.80;1.00;;;;;;4976791;28;20140;-83
2022/06/25 06:28:05;;;;;;;11.50;8.15;;;19.90;1.00;;;;;;4990224;28;20119;-83
2022/06/25 06:30:31;;;;;;;9.45;8.10;;;19.80;1.00;;;;;;4976708;28;20042;-83
2022/06/25 06:32:57;;;;;;;8.75;7.85;;;19.90;1.00;;;;;;4993428;28;20050;-83
2022/06/25 06:35:22;;;;;;;8.95;8.05;;;19.90;1.00;;;;;;4963902;28;20581;-82
2022/06/25 06:37:48;;;;;;;8.27;7.47;;;19.90;1.00;;;;;;4975458;28;20034;-83
2022/06/25 06:40:15;;;;;;;9.35;7.93;;;20.00;1.00;;;;;;4963213;28;20571;-83
2022/06/25 06:42:40;;;;;;;10.10;7.88;;;20.00;99.90;;;;;;4960828;28;20045;-83
2022/06/25 06:45:07;;;;;;;8.82;7.82;;;20.10;1.00;;;;;;4962093;28;20382;-83
2022/06/25 06:47:32;;;;;;;9.40;7.28;;;20.20;99.90;;;;;;4975929;28;20042;-83
2022/06/25 06:50:10;;;;;;;7.70;6.90;;;20.30;99.90;;;;;;4962276;28;20048;-83
2022/06/25 06:52:36;;;;;;;8.75;6.88;;;20.40;99.90;;;;;;4979952;28;20078;-83
2022/06/25 06:55:04;;;;;;;8.85;6.53;;;20.40;99.90;;;;;;4959916;28;20136;-83
2022/06/25 06:57:34;;;;;;;9.65;7.38;;;20.50;99.90;;;;;;4979271;28;20506;-83
2022/06/25 07:00:04;;;;;;;9.73;7.20;;;20.70;99.90;;;;;;4958371;28;20042;-83
2022/06/25 07:02:30;;;;;;;8.32;6.35;;;20.60;99.90;;;;;;4971714;28;20034;-83
2022/06/25 07:04:56;;;;;;;9.35;6.53;;;20.70;99.90;;;;;;4993822;28;20053;-83
2022/06/25 07:07:22;;;;;;;9.43;5.80;;;20.90;99.90;;;;;;4955927;28;20085;-83
2022/06/25 07:09:51;;;;;;;9.30;6.30;;;21.00;99.90;;;;;;4963133;28;20483;-83
2022/06/25 07:12:17;;;;;;;8.88;5.70;;;21.10;99.90;;;;;;4973872;28;20047;-83
2022/06/25 07:14:43;;;;;;;7.03;5.65;;;21.40;99.90;;;;;;4960295;28;20038;-83
2022/06/25 07:17:09;;;;;;;7.82;5.53;;;21.50;99.90;;;;;;4957315;28;20042;-83
2022/06/25 07:19:34;;;;;;;6.15;5.00;;;21.50;99.90;;;;;;4962649;28;20267;-83
2022/06/25 07:22:00;;;;;;;7.00;5.05;;;21.20;99.90;;;;;;4976631;28;20042;-83
2022/06/25 07:24:26;;;;;;;6.53;5.07;;;21.40;99.90;;;;;;4960145;28;20044;-83
2022/06/25 07:26:52;;;;;;;6.28;4.25;;;21.30;99.90;;;;;;4996391;28;20045;-83
2022/06/25 07:29:23;;;;;;;8.55;4.63;;;21.30;99.90;;;;;;4974432;28;20595;-86
2022/06/25 07:31:51;;;;;;;5.28;4.20;;;21.40;99.90;;;;;;4969829;28;20551;-86
2022/06/25 07:34:37;;;;;;;6.30;3.92;;;21.60;99.90;;;;;;4963275;28;20038;-86
2022/06/25 07:37:12;;;;;;;5.90;4.00;;;21.60;99.90;;;;;;4955579;28;20134;-86
2022/06/25 07:39:38;;;;;;;;;;;21.70;99.90;;;;;;4964190;28;20136;-86
2022/06/25 07:42:04;;;;;;;6.75;3.50;;;21.80;99.90;;;;;;4973994;28;19921;-86
2022/06/25 07:44:31;;;;;;;5.50;3.83;;;21.80;99.90;;;;;;4993074;28;20168;-86
2022/06/25 07:46:56;;;;;;;4.70;2.97;;;22.00;99.90;;;;;;4961905;28;20518;-86
2022/06/25 07:49:22;;;;;;;4.63;3.80;;;22.10;99.90;;;;;;4977071;28;20125;-86
2022/06/25 07:51:57;;;;;;;4.45;3.08;;;22.30;99.90;;;;;;4977252;28;20156;-86
2022/06/25 07:54:33;;;;;;;5.70;3.47;;;22.30;99.90;;;;;;4960885;28;20430;-86
2022/06/25 07:56:59;;;;;;;7.47;3.30;;;22.20;99.90;;;;;;4973264;28;20299;-85
2022/06/25 07:59:25;;;;;;;6.38;3.30;;;22.20;99.90;;;;;;4956634;28;20035;-86
2022/06/25 08:01:50;;;;;;;5.68;3.00;;;22.10;99.90;;;;;;4963132;28;20339;-87
2022/06/25 08:04:16;;;;;;;4.95;3.10;;;21.90;99.90;;;;;;4974272;28;20495;-86
2022/06/25 08:06:43;;;;;;;4.18;3.00;;;22.00;99.90;;;;;;4956935;28;20447;-86
2022/06/25 08:09:09;;;;;;;4.00;3.08;;;22.20;95.10;;;;;;4980788;28;20042;-86
2022/06/25 08:11:35;;;;;;;6.82;3.17;;;22.30;99.90;;;;;;4961200;28;20034;-86
2022/06/25 08:14:01;;;;;;;5.90;2.78;;;22.40;61.60;;;;;;4956495;28;20073;-86
2022/06/25 08:16:27;;;;;;;3.80;2.88;;;22.50;47.90;;;;;;4959676;28;20112;-86
2022/06/25 08:18:53;;;;;;;5.25;3.15;;;22.40;99.90;;;;;;4958971;28;20085;-86
2022/06/25 08:21:22;;;;;;;7.68;3.05;;;22.50;52.90;;;;;;4958146;28;20041;-86
2022/06/25 08:23:47;;;;;;;4.05;2.75;;;22.30;59.30;;;;;;4972851;28;20031;-86
2022/06/25 08:26:15;;;;;;;6.40;3.35;;;22.70;65.80;;;;;;4956574;28;20422;-85
2022/06/25 08:28:41;;;;;;;4.30;2.72;;;22.90;1.00;;;;;;4962413;28;20049;-86
2022/06/25 08:31:08;;;;;;;6.07;2.78;;;23.10;1.00;;;;;;4973878;28;20558;-86
2022/06/25 08:33:33;;;;;;;5.88;2.97;;;23.40;13.20;;;;;;4957833;28;20516;-86
2022/06/25 08:35:59;;;;;;;6.10;3.10;;;23.80;1.00;;;;;;4976131;28;20049;-86
2022/06/25 08:38:25;;;;;;;5.13;3.05;;;23.80;1.00;;;;;;4956486;28;20038;-86
2022/06/25 08:40:56;;;;;;;4.38;2.70;;;23.80;1.00;;;;;;4955060;28;20117;-86
2022/06/25 08:43:22;;;;;;;4.00;2.60;;;23.60;1.00;;;;;;4977536;28;20042;-86
2022/06/25 08:45:48;;;;;;;5.38;2.70;;;23.10;90.10;;;;;;4990045;28;20513;-85
2022/06/25 08:48:20;;;;;;;6.53;3.15;;;23.10;63.70;;;;;;4975661;28;20068;-85
2022/06/25 08:50:48;;;;;;;4.85;2.60;;;22.70;1.00;;;;;;4961733;28;20038;-86
2022/06/25 08:53:15;;;;;;;6.88;2.85;;;23.30;1.10;;;;;;4992727;28;20050;-86
2022/06/25 08:55:41;;;;;;;3.90;2.60;;;23.60;30.00;;;;;;4989282;28;20047;-86
2022/06/25 08:58:09;;;;;;;5.22;2.25;;;23.50;1.00;;;;;;4973378;28;20046;-86
2022/06/25 09:00:38;;;;;;;4.88;2.60;;;23.70;1.00;;;;;;4991092;28;20038;-86
2022/06/25 09:03:05;;;;;;;6.30;2.80;;;23.40;1.00;;;;;;4965203;28;20039;-86
2022/06/25 09:05:33;;;;;;;5.28;2.90;;;23.30;24.20;;;;;;4971236;28;20049;-86
2022/06/25 09:08:01;;;;;;;3.88;2.67;;;23.30;1.00;;;;;;4973599;28;20066;-86
2022/06/25 09:10:28;;;;;;;5.38;2.72;;;23.30;1.00;;;;;;4961302;28;20040;-87
2022/06/25 09:12:56;;;;;;;4.85;2.80;;;23.80;1.00;;;;;;4959319;28;20125;-86
2022/06/25 09:15:34;;;;;;;5.20;2.42;;;23.60;1.00;;;;;;4992393;28;20129;-86
2022/06/25 09:18:26;;;;;;;6.32;2.60;;;23.60;1.00;;;;;;4956681;28;20038;-86
2022/06/25 09:20:55;;;;;;;4.93;2.08;;;23.40;5.50;;;;;;4952683;28;20410;-86
2022/06/25 09:23:20;;;;;;;6.28;2.25;;;23.10;1.40;;;;;;4954040;28;20165;-86
2022/06/25 09:25:58;;;;;;;3.15;2.20;;;23.20;56.30;;;;;;4955161;28;20506;-87
2022/06/25 09:28:33;;;;;;;3.13;2.00;;;23.70;1.00;;;;;;4954540;28;20045;-86
2022/06/25 09:30:59;;;;;;;2.35;1.83;;;24.00;1.00;;;;;;4989180;28;20038;-86
2022/06/25 09:33:25;;;;;;;2.45;1.63;;;24.10;1.00;;;;;;4977451;28;20049;-86
2022/06/25 09:35:52;;;;;;;4.72;2.20;;;24.60;1.00;;;;;;4975047;28;20049;-86
2022/06/25 09:38:18;;;;;;;2.78;1.70;;;24.30;1.00;;;;;;4956877;28;20115;-86
2022/06/25 09:40:56;;;;;;;4.22;1.92;;;24.70;1.00;;;;;;4989249;28;20038;-88
2022/06/25 09:43:27;;;;;;;2.83;1.98;;;24.70;1.00;;;;;;4960893;28;20317;-87
2022/06/25 09:45:55;;;;;;;4.85;1.80;;;24.60;1.00;;;;;;4989022;28;20038;-86
2022/06/25 09:48:26;;;;;;;5.57;2.13;;;24.70;1.00;;;;;;4970845;28;20133;-87
2022/06/25 09:51:12;;;;;;;3.40;1.75;;;24.50;1.00;;;;;;4956466;28;20038;-86
2022/06/25 09:53:48;;;;;;;4.00;1.75;;;24.90;99.90;;;;;;4957735;28;20066;-86
2022/06/25 09:56:17;;;;;;;1.98;1.50;;;24.70;1.00;;;;;;4973806;28;20055;-87
2022/06/25 09:58:44;;;;;;;2.00;1.70;;;25.30;1.00;;;;;;4958334;28;20050;-87
2022/06/25 10:01:10;;;;;;;3.17;1.80;;;25.00;1.00;;;;;;4969463;28;20573;-86
2022/06/25 10:03:37;;;;;;;3.70;2.00;;;24.80;1.00;;;;;;4953661;28;20042;-87
2022/06/25 10:06:03;;;;;;;4.50;2.13;;;24.70;1.00;;;;;;4958010;28;20447;-86
2022/06/25 10:08:30;;;;;;;4.80;2.10;;;24.60;1.00;;;;;;4975118;28;20050;-86
2022/06/25 10:10:57;;;;;;;2.85;1.65;;;24.80;1.00;;;;;;4961414;28;20306;-87
2022/06/25 10:13:24;;;;;;;3.17;1.90;;;24.90;1.00;;;;;;4955873;28;20615;-87
2022/06/25 10:15:52;;;;;;;3.90;1.80;;;24.70;1.00;;;;;;4958689;28;20069;-87
2022/06/25 10:18:18;;;;;;;2.70;1.60;;;24.50;1.00;;;;;;4960499;28;20419;-87
2022/06/25 10:20:44;;;;;;;3.53;1.63;;;24.70;1.00;;;;;;4956981;28;20165;-87
2022/06/25 10:23:11;;;;;;;5.05;1.80;;;24.40;1.00;;;;;;4956608;28;20051;-88
2022/06/25 10:25:38;;;;;;;2.40;1.65;;;24.60;1.00;;;;;;4959437;28;20126;-86
2022/06/25 10:28:12;;;;;;;4.18;1.70;;;24.70;1.00;;;;;;4958290;28;20038;-87
2022/06/25 10:30:49;;;;;;;1.83;1.50;;;24.50;1.00;;;;;;4977164;28;20073;-87
2022/06/25 10:33:17;;;;;;;3.58;1.88;;;25.10;1.00;;;;;;4960412;28;20073;-87
2022/06/25 10:35:44;;;;;;;1.75;1.42;;;25.00;1.00;;;;;;4960709;28;20058;-87
2022/06/25 10:38:16;;;;;;;5.22;1.77;;;25.30;1.00;;;;;;4953734;28;20038;-87
2022/06/25 10:40:46;;;;;;;2.70;1.40;;;24.90;99.90;;;;;;4974714;28;20558;-87
2022/06/25 10:43:48;;;;;;;4.40;1.60;;;25.30;1.00;;;;;;4952665;28;20453;-87
2022/06/25 10:46:29;;;;;;;2.80;1.88;;;25.80;1.00;;;;;;4962177;28;20183;-87
2022/06/25 10:49:10;;;;;;;3.80;1.65;;;25.60;1.00;;;;;;4975514;28;20467;-86
2022/06/25 10:51:38;;;;;;;2.67;1.60;;;25.30;99.90;;;;;;4960551;28;20073;-87
2022/06/25 10:54:06;;;;;;;1.92;1.65;;;25.60;1.00;;;;;;4957932;28;20508;-87
2022/06/25 10:56:47;;;;;;;3.05;1.67;;;25.60;1.00;;;;;;4959765;28;20046;-87
2022/06/25 10:59:32;;;;;;;2.25;1.40;;;25.80;99.90;;;;;;4972057;28;20132;-87
2022/06/25 11:01:59;;;;;;;3.78;1.45;;;25.80;99.90;;;;;;4971600;28;20034;-87
2022/06/25 11:04:27;;;;;;;3.33;1.45;;;25.60;99.90;;;;;;4986564;28;20049;-87
2022/06/25 11:07:06;;;;;;;3.03;1.25;;;26.30;1.00;;;;;;4982129;28;20102;-87
2022/06/25 11:09:35;;;;;;;2.97;1.50;;;26.70;99.90;;;;;;4953056;28;20039;-87
2022/06/25 11:12:01;;;;;;;2.75;1.40;;;26.40;99.90;;;;;;4979690;28;20274;-87
2022/06/25 11:14:26;;;;;;;2.78;1.35;;;25.80;99.90;;;;;;4955072;28;20047;-87
2022/06/25 11:16:54;;;;;;;3.53;1.33;;;25.40;99.90;;;;;;4978297;28;20112;-87
2022/06/25 11:19:23;;;;;;;2.42;1.38;;;26.20;99.90;;;;;;4985064;28;20316;-87
2022/06/25 11:21:49;;;;;;;3.00;1.40;;;26.10;99.90;;;;;;4968692;28;20104;-86
2022/06/25 11:24:17;;;;;;;2.55;1.20;;;26.40;99.90;;;;;;4969743;28;20062;-87
2022/06/25 11:29:56;;;;;;;3.58;1.60;;;26.60;99.90;;;;;;4972876;28;20407;-87
2022/06/25 11:32:24;;;;;;;2.25;1.55;;;26.80;99.90;;;;;;4953396;28;20376;-87
2022/06/25 11:34:54;;;;;;;4.35;1.70;;;26.90;99.90;;;;;;4976703;28;20501;-87
2022/06/25 11:37:21;;;;;;;3.40;1.35;;;26.70;99.90;;;;;;4995109;28;20287;-87
2022/06/25 11:39:48;;;;;;;3.80;1.35;;;26.20;99.90;;;;;;4988271;28;20120;-87
2022/06/25 11:42:14;;;;;;;3.33;1.42;;;26.60;99.90;;;;;;4954370;28;20042;-87
2022/06/25 11:44:46;;;;;;;2.00;1.20;;;26.50;99.90;;;;;;4990698;28;20339;-87
2022/06/25 11:47:20;;;;;;;2.47;1.45;;;26.30;1.00;;;;;;4972284;28;20220;-87
2022/06/25 11:49:46;;;;;;;2.55;1.45;;;26.30;99.90;;;;;;4990916;28;20339;-87
2022/06/25 11:52:14;;;;;;;2.25;1.60;;;26.40;99.90;;;;;;4957708;28;20030;-87
2022/06/25 11:54:41;;;;;;;4.00;1.20;;;25.90;99.90;;;;;;4954507;28;20058;-87
2022/06/25 11:57:17;;;;;;;3.03;1.50;;;26.10;99.90;;;;;;4977087;28;20318;-87
2022/06/25 11:59:43;;;;;;;2.97;1.50;;;26.10;99.90;;;;;;4954419;28;20043;-88
2022/06/25 12:02:11;;;;;;;2.20;1.40;;;26.30;99.90;;;;;;4966518;28;20102;-87
2022/06/25 12:04:46;;;;;;;1.52;1.20;;;26.00;99.90;;;;;;4960005;28;20054;-88
2022/06/25 12:07:19;;;;;;;2.40;1.45;;;25.80;99.90;;;;;;4955837;28;20073;-88
2022/06/25 12:09:45;;;;;;;3.88;1.45;;;25.50;99.90;;;;;;4989678;28;20030;-88
2022/06/25 12:12:14;;;;;;;2.60;1.60;;;25.20;99.90;;;;;;4956267;28;20057;-87
2022/06/25 12:14:41;;;;;;;3.22;1.50;;;24.80;99.90;;;;;;4962866;28;20043;-89
2022/06/25 12:17:07;;;;;;;4.07;1.35;;;24.90;99.90;;;;;;4959462;28;20537;-87
2022/06/25 12:19:53;;;;;;;3.17;1.40;;;24.80;99.90;;;;;;4978943;28;20129;-87
2022/06/25 12:22:29;;;;;;;2.75;1.40;;;24.70;99.90;;;;;;4949809;28;20049;-88
2022/06/25 12:25:02;;;;;;;7.35;1.60;;;24.30;99.90;;;;;;4962716;28;20050;-88
2022/06/25 12:27:28;;;;;;;3.78;1.75;;;24.10;99.90;;;;;;4961174;28;20212;-88
2022/06/25 12:29:56;;;;;;;4.32;1.80;;;23.70;1.00;;;;;;4968689;28;20047;-89
2022/06/25 12:32:42;;;;;;;3.60;1.75;;;23.10;1.00;;;;;;4961125;28;20169;-88
2022/06/25 12:35:17;;;;;;;4.03;2.08;;;23.20;1.00;;;;;;4982062;28;20039;-88
2022/06/25 12:37:57;;;;;;;3.88;1.90;;;22.90;1.00;;;;;;4960076;28;20050;-88
2022/06/25 12:40:23;;;;;;;2.95;1.77;;;22.80;1.00;;;;;;4957085;28;20078;-88
2022/06/25 12:42:59;;;;;;;3.75;1.90;;;22.70;1.00;;;;;;4954256;28;20038;-83
2022/06/25 12:45:25;;;;;;;4.10;1.80;;;22.50;1.00;;;;;;4976973;28;20050;-83
2022/06/25 12:47:52;;;;;;;2.05;1.85;;;22.40;10.20;;;;;;4955327;28;20062;-83
2022/06/25 12:50:37;;;;;;;2.55;2.20;;;22.50;10.10;;;;;;4970584;28;20102;-83
2022/06/25 12:53:11;;;;;;;2.60;2.00;;;22.70;1.00;;;;;;4981244;28;20050;-83